TAF and METAR

Decoding for American and Canadian METARs and TAFs is not fully implemented.

Could not understand the following METAR

KNXP 201356Z AUTO 32006KT 10SM CLR 17/02 A2998 RMK AO2 SLP119 T01670017

TAF for Twentynine Palms

TAF KNXP 2009/2109 32010KT 9999 SKC QNH2987INS TEMPO 2009/2015 32014G22KT BECMG 2021/2023 VRB06KT 9999 SKC QNH2988INS AUTOMATED SENSOR METWATCH 2009 TIL 2109 T15/2012Z T29/2021Z

between 20. sep 11:00 - 21. sep 11:00

wind 10 knots from NW (320°) visibility > 10km
Twentynine Palms in United States of America at 626m

Latest 5 airports